Time;durP1;ratioP1;P1;durP2;ratioP2;P2;SDS_P1;SDS_P2;PMS_P1;PMS_P2;Temp;Humidity;BMP_temperature;BMP_pressure;BME280_temperature;BME280_humidity;BME280_pressure;Samples;Min_cycle;Max_cycle;Signal;HPM_P1;HPM_P2
2024/04/10 00:00:18;;;;;;;6.35;0.63;;;9.30;99.90;;;;;;5449699;26;20043;-69
2024/04/10 00:02:44;;;;;;;3.78;1.58;;;9.20;99.90;;;;;;5445191;26;20763;-69
2024/04/10 00:05:10;;;;;;;9.88;1.30;;;9.20;99.90;;;;;;5440574;26;19999;-69
2024/04/10 00:07:36;;;;;;;3.03;0.47;;;9.30;99.90;;;;;;5439699;26;20003;-69
2024/04/10 00:10:03;;;;;;;1.50;0.60;;;9.20;99.90;;;;;;5440326;26;19999;-69
2024/04/10 00:12:29;;;;;;;2.78;0.55;;;9.20;99.90;;;;;;5431040;26;20065;-69
2024/04/10 00:14:54;;;;;;;1.35;0.47;;;9.20;99.90;;;;;;5438528;26;20011;-69
2024/04/10 00:17:20;;;;;;;2.20;1.10;;;9.20;99.90;;;;;;5434324;26;20039;-69
2024/04/10 00:19:51;;;;;;;2.28;0.20;;;9.20;99.90;;;;;;5445169;26;19995;-69
2024/04/10 00:22:16;;;;;;;0.93;0.38;;;9.20;99.90;;;;;;5421925;26;20069;-69
2024/04/10 00:24:42;;;;;;;3.22;0.68;;;9.20;99.90;;;;;;5450468;26;20014;-69
2024/04/10 00:27:08;;;;;;;4.63;0.85;;;9.20;99.90;;;;;;5438422;26;19998;-69
2024/04/10 00:29:34;;;;;;;1.42;0.40;;;9.10;99.90;;;;;;5476055;26;20014;-69
2024/04/10 00:32:00;;;;;;;1.20;0.57;;;9.00;99.90;;;;;;5435537;26;20047;-69
2024/04/10 00:34:26;;;;;;;3.42;0.60;;;9.00;99.90;;;;;;5433636;26;20006;-69
2024/04/10 00:36:51;;;;;;;0.30;0.30;;;9.00;99.90;;;;;;5424862;26;19994;-69
2024/04/10 00:39:17;;;;;;;2.30;0.47;;;9.10;99.90;;;;;;5425963;26;20075;-68
2024/04/10 00:41:43;;;;;;;2.72;0.50;;;9.00;99.90;;;;;;5422283;26;20037;-69
2024/04/10 00:44:09;;;;;;;2.65;1.15;;;9.00;99.90;;;;;;5438591;26;20004;-69
2024/04/10 00:46:35;;;;;;;3.35;0.63;;;9.00;99.90;;;;;;5423616;26;19999;-71
2024/04/10 00:49:01;;;;;;;1.77;0.38;;;9.10;99.90;;;;;;5422950;26;20394;-70
2024/04/10 00:51:28;;;;;;;1.98;0.77;;;9.10;99.90;;;;;;5420151;26;20019;-70
2024/04/10 00:53:55;;;;;;;1.83;0.60;;;9.00;99.90;;;;;;5433282;26;20355;-70
2024/04/10 00:56:21;;;;;;;3.03;0.60;;;9.10;99.90;;;;;;5434565;26;20015;-70
2024/04/10 00:58:50;;;;;;;0.80;0.80;;;9.10;99.90;;;;;;5418130;26;19995;-70
2024/04/10 01:01:16;;;;;;;2.80;0.95;;;9.10;99.90;;;;;;5414733;26;20015;-70
2024/04/10 01:03:42;;;;;;;1.75;0.80;;;9.10;99.90;;;;;;5426891;26;20005;-70
2024/04/10 01:06:09;;;;;;;1.08;0.55;;;9.10;99.90;;;;;;5425353;26;20003;-70
2024/04/10 01:08:38;;;;;;;1.73;0.60;;;9.00;99.90;;;;;;5443450;26;19992;-70
2024/04/10 01:11:06;;;;;;;2.05;0.65;;;9.00;99.90;;;;;;5424778;26;20402;-69
2024/04/10 01:13:33;;;;;;;0.75;0.57;;;9.00;99.90;;;;;;5440060;26;20067;-69
2024/04/10 01:15:59;;;;;;;6.68;0.77;;;9.10;99.90;;;;;;5430457;26;20007;-69
2024/04/10 01:18:25;;;;;;;0.22;0.22;;;9.00;99.90;;;;;;5403074;26;20010;-69
2024/04/10 01:20:51;;;;;;;0.55;0.50;;;9.20;99.90;;;;;;5430888;26;20005;-69
2024/04/10 01:23:21;;;;;;;0.98;0.45;;;9.20;99.90;;;;;;5433295;26;20485;-69
2024/04/10 01:25:47;;;;;;;4.03;0.40;;;9.20;99.90;;;;;;5418746;26;20009;-69
2024/04/10 01:28:14;;;;;;;7.47;0.95;;;9.30;99.90;;;;;;5427704;26;20427;-69
2024/04/10 01:30:40;;;;;;;2.97;0.40;;;9.30;99.90;;;;;;5415993;26;19999;-70
2024/04/10 01:33:05;;;;;;;1.75;0.35;;;9.30;99.90;;;;;;5427625;26;20072;-69
2024/04/10 01:35:31;;;;;;;0.75;0.35;;;9.30;99.90;;;;;;5414133;26;20004;-69
2024/04/10 01:37:57;;;;;;;4.32;1.00;;;9.30;99.90;;;;;;5435619;26;19998;-70
2024/04/10 01:40:23;;;;;;;3.80;0.50;;;9.30;99.90;;;;;;5432647;26;20018;-70
2024/04/10 01:42:50;;;;;;;1.80;0.28;;;9.30;99.90;;;;;;5423197;26;19999;-70
2024/04/10 01:45:16;;;;;;;5.93;0.52;;;9.30;99.90;;;;;;5415490;26;20003;-70
2024/04/10 01:47:42;;;;;;;0.20;0.20;;;9.30;99.90;;;;;;5420885;26;19992;-70
2024/04/10 01:50:08;;;;;;;1.75;0.52;;;9.40;99.90;;;;;;5451773;26;20010;-70
2024/04/10 01:52:34;;;;;;;2.72;0.43;;;9.40;99.90;;;;;;5427517;26;20046;-70
2024/04/10 01:55:01;;;;;;;0.90;0.40;;;9.30;99.90;;;;;;5415098;26;20332;-70
2024/04/10 01:57:27;;;;;;;0.95;0.40;;;9.30;99.90;;;;;;5422875;26;19999;-70
2024/04/10 01:59:52;;;;;;;0.70;0.30;;;9.30;99.90;;;;;;5420628;26;20041;-70
2024/04/10 02:02:18;;;;;;;0.93;0.30;;;9.20;99.90;;;;;;5428286;26;20003;-70
2024/04/10 02:04:45;;;;;;;1.25;0.45;;;9.10;99.90;;;;;;5413396;26;20007;-70
2024/04/10 02:07:11;;;;;;;3.72;0.80;;;9.10;99.90;;;;;;5448200;26;20328;-70
2024/04/10 02:09:37;;;;;;;4.47;0.95;;;9.10;99.90;;;;;;5422691;26;20012;-70
2024/04/10 02:12:04;;;;;;;0.50;0.50;;;9.20;99.90;;;;;;5426283;26;19996;-70
2024/04/10 02:14:31;;;;;;;0.45;0.25;;;9.20;99.90;;;;;;5420862;26;20022;-70
2024/04/10 02:16:57;;;;;;;0.52;0.35;;;9.00;99.90;;;;;;5414732;26;20002;-70
2024/04/10 02:19:23;;;;;;;7.20;0.57;;;9.00;99.90;;;;;;5413880;26;20076;-72
2024/04/10 02:21:49;;;;;;;1.10;0.57;;;9.00;99.90;;;;;;5416449;26;20393;-70
2024/04/10 02:24:14;;;;;;;2.03;0.95;;;8.90;99.90;;;;;;5415193;26;20504;-70
2024/04/10 02:26:40;;;;;;;1.02;0.70;;;8.90;99.90;;;;;;5425556;26;20564;-70
2024/04/10 02:31:42;;;;;;;10.23;1.13;;;8.90;99.90;;;;;;5412124;26;20007;-65
2024/04/10 02:34:08;;;;;;;1.67;0.80;;;9.00;99.90;;;;;;5414261;26;20003;-65
2024/04/10 02:36:34;;;;;;;4.93;1.17;;;8.90;99.90;;;;;;5375623;26;20646;-65
2024/04/10 02:39:00;;;;;;;6.13;1.25;;;8.80;99.90;;;;;;5362487;26;20008;-65
2024/04/10 02:41:25;;;;;;;2.50;1.30;;;8.60;99.90;;;;;;5362732;26;20019;-65
2024/04/10 02:43:51;;;;;;;3.78;2.72;;;8.60;99.90;;;;;;5346223;26;20012;-65
2024/04/10 02:46:17;;;;;;;9.60;2.25;;;8.60;99.90;;;;;;5395074;26;20057;-65
2024/04/10 02:48:44;;;;;;;4.80;2.33;;;8.50;99.90;;;;;;5404483;26;20000;-65
2024/04/10 02:51:10;;;;;;;5.47;1.92;;;8.40;99.90;;;;;;5404595;26;20068;-64
2024/04/10 02:53:35;;;;;;;2.40;1.15;;;8.40;99.90;;;;;;5397343;26;20000;-64
2024/04/10 02:56:02;;;;;;;6.65;1.50;;;8.40;99.90;;;;;;5397572;26;20027;-65
2024/04/10 02:58:28;;;;;;;1.92;0.82;;;8.30;99.90;;;;;;5413764;26;20031;-65
2024/04/10 03:00:55;;;;;;;5.18;1.38;;;8.30;99.90;;;;;;5400807;26;20010;-65
2024/04/10 03:03:23;;;;;;;3.63;0.90;;;8.30;99.90;;;;;;5411790;26;20018;-65
2024/04/10 03:06:07;;;;;;;1.77;0.95;;;8.30;99.90;;;;;;5374306;26;20003;-65
2024/04/10 03:08:36;;;;;;;4.43;1.33;;;8.20;99.90;;;;;;5404509;26;20467;-65
2024/04/10 03:11:07;;;;;;;4.72;1.77;;;8.20;99.90;;;;;;5368491;26;20015;-65
2024/04/10 03:13:33;;;;;;;6.88;1.27;;;8.10;99.90;;;;;;5364758;26;19997;-64
2024/04/10 03:15:59;;;;;;;2.28;1.35;;;8.10;99.90;;;;;;5396809;26;20000;-65
2024/04/10 03:18:25;;;;;;;6.82;1.20;;;8.00;99.90;;;;;;5413451;26;20007;-65
2024/04/10 03:20:51;;;;;;;2.38;0.77;;;8.00;99.90;;;;;;5398168;26;20007;-65
2024/04/10 03:23:16;;;;;;;6.28;0.80;;;7.90;99.90;;;;;;5393069;26;20000;-65
2024/04/10 03:25:42;;;;;;;6.03;0.90;;;7.90;99.90;;;;;;5393915;26;19999;-65
2024/04/10 03:28:08;;;;;;;3.83;0.75;;;7.90;99.90;;;;;;5413047;26;20003;-65
2024/04/10 03:30:34;;;;;;;2.00;0.55;;;7.80;99.90;;;;;;5404609;26;20003;-65
2024/04/10 03:33:00;;;;;;;3.65;0.75;;;7.80;99.90;;;;;;5405393;26;20325;-65
2024/04/10 03:35:26;;;;;;;4.28;1.20;;;7.90;99.90;;;;;;5375680;26;19999;-64
2024/04/10 03:37:51;;;;;;;4.55;0.95;;;7.80;99.90;;;;;;5402502;26;20049;-64
2024/04/10 03:40:17;;;;;;;2.15;0.93;;;7.80;99.90;;;;;;5405025;26;19995;-64
2024/04/10 03:42:43;;;;;;;0.50;0.38;;;7.80;99.90;;;;;;5413696;26;19999;-65
2024/04/10 03:45:12;;;;;;;2.22;0.60;;;7.70;99.90;;;;;;5399534;26;20012;-65
2024/04/10 03:47:38;;;;;;;3.20;0.80;;;7.70;99.90;;;;;;5411407;26;19999;-65
2024/04/10 03:50:06;;;;;;;0.70;0.40;;;7.70;99.90;;;;;;5393283;26;20024;-65
2024/04/10 03:52:32;;;;;;;6.47;0.60;;;7.70;99.90;;;;;;5356025;26;19999;-65
2024/04/10 03:54:58;;;;;;;1.65;0.55;;;7.70;99.90;;;;;;5384848;26;20413;-65
2024/04/10 03:57:24;;;;;;;1.27;0.45;;;7.70;99.90;;;;;;5402947;26;20073;-65
2024/04/10 03:59:49;;;;;;;3.58;0.25;;;7.70;99.90;;;;;;5399554;26;20057;-65
2024/04/10 04:02:15;;;;;;;4.97;0.93;;;7.70;99.90;;;;;;5412968;26;20464;-65
2024/04/10 04:04:41;;;;;;;0.52;0.47;;;7.70;99.90;;;;;;5403929;26;20008;-64
2024/04/10 04:07:06;;;;;;;0.63;0.50;;;7.60;99.90;;;;;;5403153;26;20246;-64
2024/04/10 04:09:32;;;;;;;0.85;0.40;;;7.60;99.90;;;;;;5406417;26;20365;-65
2024/04/10 04:11:58;;;;;;;3.15;0.85;;;7.60;99.90;;;;;;5411673;26;20003;-65
2024/04/10 04:14:24;;;;;;;1.00;0.75;;;7.50;99.90;;;;;;5410129;26;19999;-65
2024/04/10 04:16:49;;;;;;;1.98;1.17;;;7.60;99.90;;;;;;5406309;26;20050;-66
2024/04/10 04:19:15;;;;;;;0.90;0.50;;;7.50;99.90;;;;;;5372110;26;20096;-65
2024/04/10 04:21:41;;;;;;;5.95;0.68;;;7.60;99.90;;;;;;5365976;26;20004;-65
2024/04/10 04:24:07;;;;;;;2.38;0.45;;;7.60;99.90;;;;;;5371376;26;20217;-65
2024/04/10 04:26:32;;;;;;;3.78;1.13;;;7.70;99.90;;;;;;5360830;26;19997;-65
2024/04/10 04:28:58;;;;;;;2.58;0.90;;;7.70;99.90;;;;;;5381703;26;19991;-65
2024/04/10 04:31:24;;;;;;;1.88;0.88;;;7.70;99.90;;;;;;5402270;26;20019;-65
2024/04/10 04:33:50;;;;;;;10.10;1.45;;;7.70;99.90;;;;;;5414389;26;20041;-64
2024/04/10 04:36:15;;;;;;;4.22;0.60;;;7.60;99.90;;;;;;5398978;26;19992;-65
2024/04/10 04:38:41;;;;;;;22.95;10.50;;;7.60;99.90;;;;;;5394982;26;20000;-67
2024/04/10 04:41:07;;;;;;;6.95;1.15;;;7.50;99.90;;;;;;5406710;26;19999;-66
2024/04/10 04:43:33;;;;;;;1.23;0.77;;;7.50;99.90;;;;;;5415830;26;20467;-66
2024/04/10 04:46:00;;;;;;;1.25;0.77;;;7.40;99.90;;;;;;5403913;26;19995;-66
2024/04/10 04:48:26;;;;;;;1.85;0.38;;;7.40;99.90;;;;;;5416412;26;19996;-66
2024/04/10 04:50:53;;;;;;;2.13;0.82;;;7.40;99.90;;;;;;5402706;26;20485;-66
2024/04/10 04:53:19;;;;;;;4.28;0.80;;;7.50;99.90;;;;;;5404518;26;20059;-68
2024/04/10 04:55:46;;;;;;;1.98;0.55;;;7.50;99.90;;;;;;5372847;26;20754;-68
2024/04/10 04:58:12;;;;;;;7.82;2.40;;;7.50;99.90;;;;;;5418154;26;20018;-68
2024/04/10 05:00:38;;;;;;;9.30;1.42;;;7.50;99.90;;;;;;5387448;26;20001;-67
2024/04/10 05:03:04;;;;;;;4.72;0.98;;;7.50;99.90;;;;;;5382219;26;20004;-68
2024/04/10 05:05:34;;;;;;;2.15;0.82;;;7.50;99.90;;;;;;5382367;26;20053;-68
2024/04/10 05:08:00;;;;;;;0.95;0.73;;;7.40;99.90;;;;;;5387241;26;20008;-68
2024/04/10 05:10:26;;;;;;;2.42;0.73;;;7.30;99.90;;;;;;5395590;26;20001;-67
2024/04/10 05:12:51;;;;;;;2.28;1.10;;;7.30;99.90;;;;;;5409020;26;20312;-67
2024/04/10 05:15:17;;;;;;;11.75;1.35;;;7.40;99.90;;;;;;5365264;26;20056;-68
2024/04/10 05:17:46;;;;;;;5.25;1.30;;;7.30;99.90;;;;;;5357463;26;20070;-67
2024/04/10 05:20:12;;;;;;;19.02;1.50;;;7.30;99.90;;;;;;5345820;26;20008;-67
2024/04/10 05:22:43;;;;;;;11.32;1.23;;;7.30;99.90;;;;;;5370151;26;20344;-67
2024/04/10 05:25:11;;;;;;;1.17;0.70;;;7.30;99.90;;;;;;5350144;26;20004;-67
2024/04/10 05:27:37;;;;;;;3.13;1.23;;;7.20;99.90;;;;;;5351489;26;20085;-67
2024/04/10 05:30:07;;;;;;;1.73;0.88;;;7.20;99.90;;;;;;5371024;26;20000;-67
2024/04/10 05:32:40;;;;;;;7.60;1.80;;;7.30;99.90;;;;;;5389626;26;19995;-64
2024/04/10 05:35:12;;;;;;;4.72;1.30;;;7.20;99.90;;;;;;5414303;26;20000;-65
2024/04/10 05:37:39;;;;;;;1.98;1.00;;;7.30;99.90;;;;;;5400212;26;19995;-67
2024/04/10 05:40:09;;;;;;;22.38;1.25;;;7.30;99.90;;;;;;5416757;26;20003;-66
2024/04/10 05:42:36;;;;;;;9.70;1.10;;;7.40;99.90;;;;;;5408867;26;20036;-65
2024/04/10 05:45:04;;;;;;;8.88;1.17;;;7.40;99.90;;;;;;5413021;26;19996;-65
2024/04/10 05:47:31;;;;;;;4.35;0.88;;;7.50;99.90;;;;;;5401954;26;20458;-65
2024/04/10 05:49:57;;;;;;;2.78;0.80;;;7.50;99.90;;;;;;5390520;26;19999;-65
2024/04/10 05:52:23;;;;;;;2.67;1.33;;;7.50;99.90;;;;;;5356703;26;20008;-65
2024/04/10 05:54:53;;;;;;;0.43;0.32;;;7.50;99.90;;;;;;5358976;26;19996;-65
2024/04/10 05:57:21;;;;;;;2.83;0.73;;;7.60;99.90;;;;;;5365528;26;20023;-66
2024/04/10 05:59:51;;;;;;;5.55;0.73;;;7.70;99.90;;;;;;5358386;26;20081;-65
2024/04/10 06:02:17;;;;;;;2.10;0.85;;;7.70;99.90;;;;;;5361537;26;20376;-69
2024/04/10 06:04:45;;;;;;;4.50;0.85;;;7.70;99.90;;;;;;5346301;26;20073;-56
2024/04/10 06:07:11;;;;;;;1.40;0.57;;;7.90;99.90;;;;;;5365901;26;20008;-57
2024/04/10 06:09:37;;;;;;;1.27;0.55;;;7.90;99.90;;;;;;5364758;26;20058;-55
2024/04/10 06:12:03;;;;;;;8.15;0.82;;;8.10;99.90;;;;;;5369379;26;19997;-56
2024/04/10 06:14:28;;;;;;;4.65;1.00;;;8.20;99.90;;;;;;5415537;26;20031;-58
2024/04/10 06:16:54;;;;;;;2.42;0.77;;;8.30;99.90;;;;;;5387148;26;20538;-56
2024/04/10 06:19:20;;;;;;;5.40;1.38;;;8.50;99.90;;;;;;5415285;26;20003;-54
2024/04/10 06:21:46;;;;;;;3.83;1.13;;;8.50;99.90;;;;;;5398887;26;20028;-57
2024/04/10 06:24:13;;;;;;;1.88;0.73;;;8.60;99.90;;;;;;5391504;26;20040;-68
2024/04/10 06:26:39;;;;;;;3.08;1.17;;;8.70;99.90;;;;;;5370436;26;20000;-67
2024/04/10 06:29:05;;;;;;;5.60;1.40;;;8.70;99.90;;;;;;5373770;26;20023;-67
2024/04/10 06:31:31;;;;;;;4.18;1.35;;;8.80;99.90;;;;;;5365645;26;20008;-66
2024/04/10 06:33:56;;;;;;;5.28;0.60;;;8.90;99.90;;;;;;5381315;26;20074;-67
2024/04/10 06:36:22;;;;;;;8.73;1.48;;;8.90;99.90;;;;;;5378636;26;20106;-68
2024/04/10 06:38:48;;;;;;;5.60;0.70;;;8.90;99.90;;;;;;5385400;26;20004;-69
2024/04/10 06:41:14;;;;;;;0.70;0.60;;;9.00;99.90;;;;;;5381588;26;20011;-67
2024/04/10 06:43:39;;;;;;;1.48;0.77;;;9.00;99.90;;;;;;5390986;26;20008;-68
2024/04/10 06:46:07;;;;;;;6.53;1.30;;;9.10;99.90;;;;;;5386222;26;20423;-67
2024/04/10 06:48:34;;;;;;;1.40;0.63;;;9.20;99.90;;;;;;5390438;26;20007;-67
2024/04/10 06:51:05;;;;;;;5.30;1.48;;;9.30;99.90;;;;;;5382958;26;19992;-67
2024/04/10 06:53:32;;;;;;;4.38;0.80;;;9.30;99.90;;;;;;5413555;26;19996;-67
2024/04/10 06:56:01;;;;;;;2.47;1.15;;;9.30;99.90;;;;;;5406831;26;20473;-67
2024/04/10 06:58:29;;;;;;;2.83;0.88;;;9.40;99.90;;;;;;5365248;26;20004;-68
2024/04/10 07:01:04;;;;;;;1.52;0.63;;;9.40;99.90;;;;;;5392849;26;20011;-67
2024/04/10 07:03:39;;;;;;;3.28;1.25;;;9.50;99.90;;;;;;5403570;26;19997;-68
2024/04/10 07:06:14;;;;;;;3.58;1.02;;;9.50;99.90;;;;;;5400823;26;20019;-68
2024/04/10 07:08:44;;;;;;;14.45;1.42;;;9.60;99.90;;;;;;5404345;26;20010;-68
2024/04/10 07:11:14;;;;;;;4.85;2.10;;;9.70;99.90;;;;;;5407730;26;19996;-67
2024/04/10 07:13:42;;;;;;;9.33;1.20;;;9.70;99.90;;;;;;5374809;26;20781;-67
2024/04/10 07:16:08;;;;;;;6.38;1.30;;;9.80;99.90;;;;;;5370461;26;19997;-67
2024/04/10 07:18:34;;;;;;;1.58;0.98;;;9.70;99.90;;;;;;5351744;26;20005;-67
2024/04/10 07:21:04;;;;;;;3.28;1.58;;;9.70;99.90;;;;;;5343197;26;20070;-67
2024/04/10 07:23:31;;;;;;;3.63;0.87;;;9.80;99.90;;;;;;5344018;26;20037;-68
2024/04/10 07:26:15;;;;;;;9.27;1.40;;;9.80;99.90;;;;;;5342027;26;20262;-69
2024/04/10 07:28:47;;;;;;;10.10;1.35;;;9.90;99.90;;;;;;5343335;26;20008;-70
2024/04/10 07:31:16;;;;;;;4.88;1.35;;;9.90;99.90;;;;;;5332436;26;20080;-70
2024/04/10 07:33:42;;;;;;;1.27;0.65;;;10.00;99.90;;;;;;5369864;26;20004;-69
2024/04/10 07:36:13;;;;;;;6.07;1.00;;;10.10;99.90;;;;;;5356605;26;20015;-69
2024/04/10 07:38:41;;;;;;;6.88;1.83;;;10.20;99.90;;;;;;5343136;26;20001;-71
2024/04/10 07:41:08;;;;;;;9.18;1.75;;;10.40;99.90;;;;;;5351135;26;19996;-69
2024/04/10 07:43:35;;;;;;;6.28;1.40;;;10.40;99.90;;;;;;5396266;26;20471;-69
2024/04/10 07:46:08;;;;;;;8.23;1.13;;;10.50;99.90;;;;;;5384571;26;20004;-69
2024/04/10 07:48:34;;;;;;;4.38;1.13;;;10.70;99.90;;;;;;5390993;26;20000;-69
2024/04/10 07:51:05;;;;;;;3.65;0.95;;;10.70;99.90;;;;;;5416745;26;20027;-70
2024/04/10 07:53:33;;;;;;;8.20;2.08;;;10.80;99.90;;;;;;5398063;26;19995;-69
2024/04/10 07:55:59;;;;;;;9.13;1.48;;;10.80;99.90;;;;;;5413501;26;20451;-69
2024/04/10 07:58:25;;;;;;;6.20;1.13;;;10.90;99.90;;;;;;5350331;26;20015;-69
2024/04/10 08:00:56;;;;;;;1.60;0.75;;;11.00;99.90;;;;;;5398253;26;20363;-69
2024/04/10 08:03:26;;;;;;;5.95;1.00;;;11.10;99.90;;;;;;5387618;26;20048;-69
2024/04/10 08:05:56;;;;;;;3.53;1.23;;;11.10;99.90;;;;;;5403135;26;20508;-69
2024/04/10 08:08:23;;;;;;;2.73;0.73;;;11.10;99.90;;;;;;5396149;26;20070;-69
2024/04/10 08:10:57;;;;;;;3.33;0.93;;;11.20;99.90;;;;;;5410947;26;20343;-69
2024/04/10 08:13:23;;;;;;;5.60;0.80;;;11.20;99.90;;;;;;5398023;26;20015;-70
2024/04/10 08:16:05;;;;;;;1.98;0.73;;;11.30;99.90;;;;;;5404758;26;20417;-69
2024/04/10 08:18:34;;;;;;;13.10;1.65;;;11.40;99.90;;;;;;5393145;26;20085;-69
2024/04/10 08:21:11;;;;;;;5.47;0.77;;;11.30;99.90;;;;;;5413209;26;20011;-68
2024/04/10 08:23:38;;;;;;;8.02;0.95;;;11.50;99.90;;;;;;5401389;26;20016;-69
2024/04/10 08:26:20;;;;;;;4.47;1.20;;;11.70;99.90;;;;;;5399623;26;20010;-69
2024/04/10 08:28:49;;;;;;;3.58;1.60;;;12.10;99.90;;;;;;5370089;26;20449;-69
2024/04/10 08:31:27;;;;;;;2.63;0.60;;;12.40;99.90;;;;;;5416316;26;20017;-69
2024/04/10 08:33:54;;;;;;;13.77;1.33;;;12.60;99.90;;;;;;5372117;26;20439;-69
2024/04/10 08:36:21;;;;;;;2.53;0.90;;;12.60;99.90;;;;;;5413067;26;20101;-70
2024/04/10 08:38:47;;;;;;;5.50;1.08;;;12.60;99.90;;;;;;5380501;26;20763;-70
2024/04/10 08:41:18;;;;;;;2.80;0.77;;;12.50;99.90;;;;;;5400244;26;20011;-68
2024/04/10 08:43:52;;;;;;;4.28;0.90;;;12.60;99.90;;;;;;5395511;26;20135;-68
2024/04/10 08:46:21;;;;;;;4.25;0.77;;;12.90;99.90;;;;;;5387968;26;19995;-68
2024/04/10 08:48:51;;;;;;;9.00;1.63;;;12.70;99.90;;;;;;5381869;26;19996;-68
2024/04/10 08:51:17;;;;;;;6.00;1.13;;;12.40;99.90;;;;;;5376877;26;20325;-69
2024/04/10 08:53:46;;;;;;;5.78;1.17;;;12.60;99.90;;;;;;5377458;26;20082;-69
2024/04/10 08:56:18;;;;;;;2.83;1.30;;;12.80;99.90;;;;;;5377406;26;20024;-69
2024/04/10 08:58:44;;;;;;;2.78;0.60;;;13.10;99.90;;;;;;5365800;26;20001;-69
2024/04/10 09:01:10;;;;;;;3.70;1.20;;;13.00;99.90;;;;;;5405497;26;20520;-69
2024/04/10 09:03:37;;;;;;;4.57;1.42;;;12.80;99.90;;;;;;5372520;26;20000;-70
2024/04/10 09:06:07;;;;;;;4.68;1.02;;;12.20;99.90;;;;;;5377425;26;20004;-68
2024/04/10 09:08:37;;;;;;;6.70;1.52;;;12.70;99.90;;;;;;5372313;26;20015;-69
2024/04/10 09:11:04;;;;;;;2.22;0.80;;;12.40;99.90;;;;;;5375226;26;20028;-69
2024/04/10 09:13:30;;;;;;;1.05;0.60;;;12.70;99.90;;;;;;5377286;26;20000;-69
2024/04/10 09:15:57;;;;;;;11.02;2.42;;;12.70;99.90;;;;;;5379375;26;20003;-69
2024/04/10 09:18:23;;;;;;;3.65;0.98;;;13.00;99.90;;;;;;5371972;26;20015;-72
2024/04/10 09:20:49;;;;;;;5.72;1.65;;;13.20;99.90;;;;;;5397438;26;20047;-71
2024/04/10 09:23:15;;;;;;;3.55;1.17;;;12.80;99.90;;;;;;5372112;26;20001;-71
2024/04/10 09:25:44;;;;;;;2.83;1.08;;;12.70;99.90;;;;;;5373423;26;20000;-72
2024/04/10 09:28:12;;;;;;;6.80;0.85;;;13.30;99.90;;;;;;5374374;26;20000;-72
2024/04/10 09:30:38;;;;;;;5.95;1.10;;;13.90;99.90;;;;;;5369686;26;20060;-71
2024/04/10 09:33:05;;;;;;;2.65;0.95;;;13.90;99.50;;;;;;5374419;26;20358;-66
2024/04/10 09:35:33;;;;;;;5.20;1.65;;;14.30;99.30;;;;;;5370223;26;20004;-67
2024/04/10 09:38:01;;;;;;;6.53;1.33;;;14.20;99.90;;;;;;5366985;26;20000;-67
2024/04/10 09:40:30;;;;;;;6.07;1.48;;;14.40;99.90;;;;;;5367835;26;20023;-67
2024/04/10 09:43:07;;;;;;;4.32;1.15;;;13.90;99.90;;;;;;5362116;26;20023;-67
2024/04/10 09:45:37;;;;;;;1.95;1.00;;;14.20;99.90;;;;;;5375408;26;20015;-68
2024/04/10 09:48:05;;;;;;;6.95;0.82;;;14.40;99.60;;;;;;5372835;26;20014;-68
2024/04/10 09:50:38;;;;;;;1.08;0.30;;;14.20;99.40;;;;;;5369174;26;20004;-68
2024/04/10 09:53:08;;;;;;;3.67;0.75;;;14.00;98.80;;;;;;5374585;26;20024;-68
2024/04/10 09:55:38;;;;;;;4.22;2.35;;;13.60;99.80;;;;;;5372651;26;20357;-68
2024/04/10 09:58:06;;;;;;;1.38;0.65;;;12.90;99.90;;;;;;5376359;26;20088;-68
2024/04/10 10:00:34;;;;;;;8.43;0.95;;;12.90;99.90;;;;;;5397418;26;20004;-67
2024/04/10 10:03:10;;;;;;;4.75;1.33;;;13.00;99.90;;;;;;5375928;26;20007;-67
2024/04/10 10:05:37;;;;;;;5.20;1.00;;;13.70;99.60;;;;;;5370964;26;20036;-67
2024/04/10 10:08:12;;;;;;;2.40;0.95;;;13.70;99.30;;;;;;5371801;26;20027;-67
2024/04/10 10:10:52;;;;;;;3.90;1.38;;;13.70;99.80;;;;;;5377900;26;20008;-67
2024/04/10 10:13:34;;;;;;;6.28;1.52;;;13.50;99.50;;;;;;5365481;26;20015;-66
2024/04/10 10:16:03;;;;;;;5.32;0.55;;;13.80;99.90;;;;;;5378423;26;20000;-67
2024/04/10 10:18:29;;;;;;;3.15;0.98;;;14.40;99.20;;;;;;5369696;26;20089;-67
2024/04/10 10:21:07;;;;;;;1.48;0.68;;;14.70;98.70;;;;;;5374072;26;20452;-67
2024/04/10 10:23:34;;;;;;;3.35;0.80;;;14.40;99.00;;;;;;5370929;26;19997;-67
2024/04/10 10:26:00;;;;;;;3.78;0.65;;;15.00;98.20;;;;;;5373682;26;20072;-66
2024/04/10 10:28:29;;;;;;;6.43;0.47;;;14.50;98.80;;;;;;5370047;26;20013;-67
2024/04/10 10:31:08;;;;;;;6.22;1.00;;;14.30;99.10;;;;;;5372864;26;20089;-67
2024/04/10 10:33:36;;;;;;;8.25;0.90;;;14.80;97.70;;;;;;5371048;26;20078;-67
2024/04/10 10:36:03;;;;;;;3.17;0.88;;;15.00;97.30;;;;;;5374208;26;20007;-67
2024/04/10 10:38:28;;;;;;;4.57;0.77;;;14.70;97.30;;;;;;5371108;26;19996;-67
2024/04/10 10:40:54;;;;;;;4.60;1.08;;;14.80;97.30;;;;;;5402961;26;20131;-67
2024/04/10 10:43:20;;;;;;;5.68;0.80;;;14.90;97.30;;;;;;5371487;26;20005;-67
2024/04/10 10:45:51;;;;;;;6.28;0.90;;;15.40;96.30;;;;;;5372554;26;20325;-67
2024/04/10 10:48:17;;;;;;;1.27;0.57;;;15.60;95.70;;;;;;5363555;26;20089;-67
2024/04/10 10:50:43;;;;;;;4.47;0.88;;;15.00;96.10;;;;;;5378988;26;20012;-67
2024/04/10 10:53:12;;;;;;;7.18;1.48;;;14.70;95.90;;;;;;5373795;26;20325;-67
2024/04/10 10:55:50;;;;;;;3.58;0.98;;;14.20;97.50;;;;;;5370812;26;20015;-67
2024/04/10 10:58:16;;;;;;;2.47;0.82;;;14.20;96.60;;;;;;5365417;26;20019;-67
2024/04/10 11:00:42;;;;;;;1.58;0.63;;;14.20;96.10;;;;;;5370211;26;20508;-67
2024/04/10 11:03:11;;;;;;;2.33;0.50;;;14.60;93.60;;;;;;5373784;26;20000;-67
2024/04/10 11:05:38;;;;;;;4.18;0.98;;;14.60;92.70;;;;;;5371363;26;20000;-68
2024/04/10 11:08:04;;;;;;;5.45;0.82;;;14.70;92.70;;;;;;5373995;26;19996;-68
2024/04/10 11:10:30;;;;;;;4.53;1.13;;;14.90;91.90;;;;;;5379064;26;20077;-68
2024/04/10 11:13:08;;;;;;;3.65;1.00;;;15.10;91.50;;;;;;5376652;26;20317;-68
2024/04/10 11:15:39;;;;;;;3.47;1.58;;;15.40;91.60;;;;;;5369500;26;20004;-68
2024/04/10 11:18:05;;;;;;;2.95;1.25;;;15.80;91.90;;;;;;5374487;26;20000;-67
2024/04/10 11:20:32;;;;;;;1.90;0.73;;;16.20;91.20;;;;;;5396322;26;20004;-67
2024/04/10 11:23:02;;;;;;;3.20;0.98;;;16.10;91.50;;;;;;5374064;26;20050;-67
2024/04/10 11:25:29;;;;;;;2.50;0.57;;;15.80;91.10;;;;;;5395534;26;20014;-67
2024/04/10 11:27:58;;;;;;;9.32;1.02;;;16.60;91.10;;;;;;5376958;26;20000;-68
2024/04/10 11:30:25;;;;;;;2.13;0.60;;;16.70;89.70;;;;;;5394591;26;20057;-68
2024/04/10 11:32:55;;;;;;;1.52;0.50;;;17.50;89.40;;;;;;5378031;26;20337;-68
2024/04/10 11:35:22;;;;;;;3.42;0.68;;;17.70;87.90;;;;;;5398743;26;20001;-67
2024/04/10 11:37:55;;;;;;;1.55;0.73;;;18.00;84.80;;;;;;5341768;26;20009;-67
2024/04/10 11:40:24;;;;;;;8.25;1.10;;;16.80;85.00;;;;;;5376886;26;20078;-67
2024/04/10 11:42:51;;;;;;;4.32;0.80;;;16.60;84.80;;;;;;5377584;26;20006;-67
2024/04/10 11:45:17;;;;;;;2.33;0.65;;;16.10;87.10;;;;;;5364670;26;20076;-67
2024/04/10 11:47:45;;;;;;;1.92;0.80;;;16.80;85.60;;;;;;5375567;26;20441;-67
2024/04/10 11:50:12;;;;;;;4.57;0.55;;;17.10;83.80;;;;;;5377892;26;20001;-67
2024/04/10 11:52:39;;;;;;;3.28;0.60;;;17.80;83.50;;;;;;5377669;26;20379;-67
2024/04/10 11:55:07;;;;;;;2.40;0.60;;;17.00;82.30;;;;;;5377398;26;20065;-67
2024/04/10 11:57:34;;;;;;;1.17;0.70;;;16.60;85.80;;;;;;5405219;26;19996;-67
2024/04/10 12:00:02;;;;;;;1.58;0.88;;;17.00;84.40;;;;;;5377496;26;20004;-67
2024/04/10 12:02:29;;;;;;;1.10;0.60;;;16.90;84.60;;;;;;5375616;26;20463;-67
2024/04/10 12:04:55;;;;;;;1.17;0.65;;;16.30;84.70;;;;;;5375718;26;19992;-67
2024/04/10 12:07:20;;;;;;;4.18;0.75;;;16.30;83.80;;;;;;5363004;26;20459;-67
2024/04/10 12:09:47;;;;;;;1.27;0.52;;;16.70;85.30;;;;;;5376906;26;20008;-67
2024/04/10 12:12:14;;;;;;;6.80;1.23;;;16.80;84.20;;;;;;5376591;26;20475;-67
2024/04/10 12:14:47;;;;;;;3.45;0.50;;;18.00;82.60;;;;;;5368681;26;20406;-67
2024/04/10 12:17:12;;;;;;;4.68;0.98;;;18.00;80.20;;;;;;5362342;26;20004;-67
2024/04/10 12:19:38;;;;;;;8.82;1.30;;;17.90;80.00;;;;;;5376811;26;20051;-67
2024/04/10 12:22:04;;;;;;;5.70;1.13;;;18.70;80.90;;;;;;5377338;26;20012;-67
2024/04/10 12:24:30;;;;;;;7.25;0.68;;;18.70;78.70;;;;;;5374821;26;20000;-68
2024/04/10 12:26:56;;;;;;;1.75;0.47;;;19.40;77.10;;;;;;5376824;26;20467;-67
2024/04/10 12:29:23;;;;;;;1.38;0.28;;;18.70;75.30;;;;;;5343097;26;20087;-67
2024/04/10 12:31:49;;;;;;;5.07;0.73;;;18.70;76.30;;;;;;5373714;26;20881;-68
2024/04/10 12:34:15;;;;;;;2.55;0.47;;;19.00;73.50;;;;;;5379534;26;20010;-68
2024/04/10 12:39:26;;;;;;;10.27;1.05;;;18.60;70.50;;;;;;5380305;26;20015;-68
2024/04/10 12:41:53;;;;;;;6.47;0.68;;;19.70;71.30;;;;;;5379595;26;20000;-68
2024/04/10 12:44:21;;;;;;;3.55;0.55;;;20.40;72.10;;;;;;5378919;26;20000;-68
2024/04/10 12:46:53;;;;;;;3.80;0.60;;;19.40;71.20;;;;;;5380101;26;19996;-68
2024/04/10 12:49:23;;;;;;;1.42;0.73;;;19.00;67.00;;;;;;5378008;26;20012;-67
2024/04/10 12:51:49;;;;;;;1.85;0.60;;;18.40;72.20;;;;;;5379215;26;20000;-67
2024/04/10 12:54:16;;;;;;;2.92;0.70;;;18.30;71.70;;;;;;5378227;26;20077;-67
2024/04/10 12:56:44;;;;;;;2.95;0.98;;;17.30;72.30;;;;;;5378395;26;20001;-67
2024/04/10 12:59:10;;;;;;;6.05;0.80;;;17.10;73.10;;;;;;5376870;26;19997;-67